createdAt,value
2023-03-16T00:00:43.415Z,18.27
2023-03-16T00:03:12.504Z,17.63
2023-03-16T00:05:40.595Z,17.42
2023-03-16T00:08:08.615Z,16.83
2023-03-16T00:10:37.493Z,19.85
2023-03-16T00:13:05.483Z,21.50
2023-03-16T00:15:33.800Z,18.10
2023-03-16T00:18:03.584Z,26.00
2023-03-16T00:20:31.681Z,17.58
2023-03-16T00:23:01.455Z,18.83
2023-03-16T00:25:35.888Z,19.08
2023-03-16T00:28:04.280Z,17.42
2023-03-16T00:30:34.312Z,18.85
2023-03-16T00:33:43.552Z,19.63
2023-03-16T00:36:16.951Z,20.73
2023-03-16T00:38:47.116Z,22.13
2023-03-16T00:41:20.356Z,21.38
2023-03-16T00:43:52.507Z,22.65
2023-03-16T00:46:26.692Z,22.52
2023-03-16T00:48:54.769Z,19.63
2023-03-16T00:51:24.392Z,20.48
2023-03-16T00:53:52.365Z,19.92
2023-03-16T00:56:20.264Z,21.95
2023-03-16T00:58:48.158Z,18.23
2023-03-16T01:01:21.734Z,19.83
2023-03-16T01:03:49.537Z,23.23
2023-03-16T01:06:20.601Z,19.85
2023-03-16T01:08:49.825Z,20.33
2023-03-16T01:11:20.864Z,22.00
2023-03-16T01:13:50.640Z,19.42
2023-03-16T01:16:19.369Z,19.40
2023-03-16T01:18:47.868Z,22.10
2023-03-16T01:21:15.684Z,22.08
2023-03-16T01:23:44.353Z,29.20
2023-03-16T01:26:15.212Z,25.80
2023-03-16T01:28:44.456Z,19.95
2023-03-16T01:31:15.359Z,22.42
2023-03-16T01:33:45.548Z,20.25
2023-03-16T01:36:15.565Z,20.85
2023-03-16T01:38:43.743Z,18.35
2023-03-16T01:41:13.706Z,27.25
2023-03-16T01:43:42.632Z,20.02
2023-03-16T01:46:20.486Z,20.00
2023-03-16T01:48:56.896Z,23.92
2023-03-16T01:51:29.104Z,18.45
2023-03-16T01:54:00.254Z,21.98
2023-03-16T01:56:35.605Z,22.70
2023-03-16T01:59:08.669Z,22.95
2023-03-16T02:01:36.999Z,27.98
2023-03-16T02:04:14.787Z,28.90
2023-03-16T02:06:44.667Z,23.95
2023-03-16T02:09:13.242Z,24.92
2023-03-16T02:11:42.966Z,22.90
2023-03-16T02:14:13.083Z,22.40
2023-03-16T02:16:42.256Z,22.20
2023-03-16T02:19:14.430Z,23.60
2023-03-16T02:21:50.566Z,27.60
2023-03-16T02:24:18.296Z,24.90
2023-03-16T02:26:53.580Z,24.83
2023-03-16T02:29:33.994Z,24.02
2023-03-16T02:32:05.571Z,26.77
2023-03-16T02:34:33.794Z,28.35
2023-03-16T02:37:02.301Z,24.70
2023-03-16T02:39:30.000Z,26.95
2023-03-16T02:41:58.029Z,28.48
2023-03-16T02:44:30.018Z,28.55
2023-03-16T02:47:01.266Z,28.33
2023-03-16T02:49:36.708Z,30.15
2023-03-16T02:52:04.730Z,27.45
2023-03-16T02:54:32.504Z,32.15
2023-03-16T02:57:00.482Z,31.42
2023-03-16T02:59:28.491Z,27.15
2023-03-16T03:01:56.474Z,27.42
2023-03-16T03:04:24.735Z,26.95
2023-03-16T03:06:53.958Z,27.38
2023-03-16T03:09:21.993Z,28.15
2023-03-16T03:11:50.673Z,29.65
2023-03-16T03:14:18.539Z,31.63
2023-03-16T03:16:46.980Z,28.23
2023-03-16T03:19:14.995Z,30.30
2023-03-16T03:21:42.995Z,30.70
2023-03-16T03:24:12.704Z,30.70
2023-03-16T03:26:40.634Z,25.95
2023-03-16T03:29:08.404Z,29.42
2023-03-16T03:31:36.414Z,32.25
2023-03-16T03:34:06.777Z,28.98
2023-03-16T03:36:34.906Z,28.67
2023-03-16T03:39:05.196Z,31.70
2023-03-16T03:41:34.921Z,30.05
2023-03-16T03:44:02.901Z,27.52
2023-03-16T03:46:30.905Z,28.95
2023-03-16T03:49:03.953Z,29.52
2023-03-16T03:51:32.131Z,28.40
2023-03-16T03:54:00.802Z,28.73
2023-03-16T03:56:28.679Z,25.25
2023-03-16T03:58:57.897Z,29.35
2023-03-16T04:01:25.837Z,30.40
2023-03-16T04:03:53.733Z,27.45
2023-03-16T04:06:21.775Z,30.27
2023-03-16T04:08:49.642Z,30.45
2023-03-16T04:11:17.989Z,29.15
2023-03-16T04:13:45.826Z,27.45
2023-03-16T04:16:16.307Z,31.77
2023-03-16T04:18:46.979Z,28.15
2023-03-16T04:21:17.113Z,27.10
2023-03-16T04:23:45.269Z,27.60
2023-03-16T04:26:13.238Z,27.52
2023-03-16T04:28:41.283Z,27.95
2023-03-16T04:31:11.770Z,27.60
2023-03-16T04:33:42.344Z,26.88
2023-03-16T04:36:10.675Z,26.00
2023-03-16T04:38:38.905Z,26.38
2023-03-16T04:41:07.901Z,26.33
2023-03-16T04:43:37.067Z,27.05
2023-03-16T04:46:06.147Z,25.38
2023-03-16T04:48:34.512Z,34.28
2023-03-16T04:51:04.889Z,30.75
2023-03-16T04:53:33.348Z,27.88
2023-03-16T04:56:01.560Z,26.05
2023-03-16T04:58:29.524Z,29.90
2023-03-16T05:00:57.423Z,26.35
2023-03-16T05:03:25.911Z,30.00
2023-03-16T05:05:53.735Z,28.35
2023-03-16T05:08:23.086Z,26.30
2023-03-16T05:10:51.145Z,28.27
2023-03-16T05:13:19.111Z,31.13
2023-03-16T05:15:47.144Z,26.13
2023-03-16T05:18:14.993Z,30.65
2023-03-16T05:20:43.319Z,32.42
2023-03-16T05:23:11.649Z,30.77
2023-03-16T05:25:40.853Z,27.52
2023-03-16T05:28:08.686Z,31.73
2023-03-16T05:30:36.971Z,28.42
2023-03-16T05:33:05.300Z,31.77
2023-03-16T05:35:33.177Z,30.63
2023-03-16T05:38:01.067Z,30.27
2023-03-16T05:40:29.519Z,28.13
2023-03-16T05:43:00.414Z,28.33
2023-03-16T05:45:28.934Z,28.95
2023-03-16T05:47:57.055Z,32.47
2023-03-16T05:50:24.902Z,29.83
2023-03-16T05:52:52.962Z,29.13
2023-03-16T05:55:21.094Z,25.27
2023-03-16T05:57:49.303Z,27.40
2023-03-16T06:00:20.869Z,32.20
2023-03-16T06:02:51.234Z,27.15
2023-03-16T06:05:21.870Z,25.10
2023-03-16T06:07:50.156Z,28.55
2023-03-16T06:10:18.620Z,26.83
2023-03-16T06:12:46.742Z,30.00
2023-03-16T06:15:14.991Z,29.65
2023-03-16T06:17:44.434Z,31.80
2023-03-16T06:20:14.835Z,30.67
2023-03-16T06:22:43.391Z,25.13
2023-03-16T06:25:13.276Z,25.48
2023-03-16T06:27:41.318Z,28.90
2023-03-16T06:30:12.503Z,27.27
2023-03-16T06:32:43.099Z,28.27
2023-03-16T06:35:13.672Z,26.67
2023-03-16T06:37:41.922Z,30.88
2023-03-16T06:40:14.179Z,30.25
2023-03-16T06:42:42.076Z,27.25
2023-03-16T06:45:13.006Z,25.73
2023-03-16T06:47:43.446Z,31.30
2023-03-16T06:50:13.107Z,28.25
2023-03-16T06:52:41.583Z,30.50
2023-03-16T06:55:12.509Z,27.58
2023-03-16T06:57:40.291Z,30.15
2023-03-16T07:00:09.717Z,34.60
2023-03-16T07:02:40.578Z,29.60
2023-03-16T07:05:11.145Z,30.13
2023-03-16T07:07:40.683Z,33.30
2023-03-16T07:10:13.337Z,30.55
2023-03-16T07:12:42.377Z,29.67
2023-03-16T07:15:11.895Z,32.25
2023-03-16T07:17:40.622Z,34.55
2023-03-16T07:20:10.764Z,35.65
2023-03-16T07:22:41.616Z,36.38
2023-03-16T07:25:11.515Z,34.53
2023-03-16T07:27:41.373Z,35.00
2023-03-16T07:30:12.361Z,31.98
2023-03-16T07:32:41.725Z,31.52
2023-03-16T07:35:11.593Z,28.77
2023-03-16T07:37:42.085Z,32.08
2023-03-16T07:40:12.023Z,36.85
2023-03-16T07:42:40.033Z,39.83
2023-03-16T07:45:09.728Z,30.02
2023-03-16T07:47:37.566Z,30.13
2023-03-16T07:50:06.363Z,26.83
2023-03-16T07:52:37.410Z,27.27
2023-03-16T07:55:09.189Z,24.33
2023-03-16T07:57:39.238Z,29.35
2023-03-16T08:00:11.108Z,25.67
2023-03-16T08:02:40.903Z,27.55
2023-03-16T08:05:12.932Z,28.70
2023-03-16T08:07:41.346Z,39.58
2023-03-16T08:10:12.948Z,25.40
2023-03-16T08:12:43.269Z,24.83
2023-03-16T08:15:15.555Z,21.27
2023-03-16T08:17:43.554Z,16.73
2023-03-16T08:20:15.442Z,15.03
2023-03-16T08:22:46.460Z,9.90
2023-03-16T08:25:19.472Z,15.57
2023-03-16T08:27:48.597Z,10.97
2023-03-16T08:30:18.544Z,15.17
2023-03-16T08:32:46.926Z,13.40
2023-03-16T08:35:16.928Z,17.60
2023-03-16T08:37:49.780Z,9.37
2023-03-16T08:40:22.521Z,10.40
2023-03-16T08:42:50.923Z,12.30
2023-03-16T08:45:20.043Z,14.63
2023-03-16T08:47:47.965Z,9.07
2023-03-16T08:50:16.674Z,10.70
2023-03-16T08:52:44.578Z,11.60
2023-03-16T08:55:13.276Z,10.47
2023-03-16T08:57:45.147Z,7.60
2023-03-16T09:00:16.119Z,7.90
2023-03-16T09:02:45.775Z,9.40
2023-03-16T09:05:16.116Z,7.97
2023-03-16T09:08:04.290Z,10.30
2023-03-16T09:10:33.295Z,8.87
2023-03-16T09:13:03.087Z,10.13
2023-03-16T09:15:34.173Z,10.20
2023-03-16T09:18:03.992Z,11.23
2023-03-16T09:20:33.563Z,8.63
2023-03-16T09:23:01.740Z,13.70
2023-03-16T09:25:31.089Z,10.07
2023-03-16T09:27:59.490Z,9.13
2023-03-16T09:30:29.899Z,8.87
2023-03-16T09:32:58.657Z,8.70
2023-03-16T09:35:27.063Z,11.10
2023-03-16T09:38:05.520Z,9.57
2023-03-16T09:40:36.355Z,8.63
2023-03-16T09:43:41.186Z,9.97
2023-03-16T09:46:16.167Z,9.73
2023-03-16T09:48:50.142Z,9.43
2023-03-16T09:51:24.045Z,9.00
2023-03-16T09:53:58.175Z,9.97
2023-03-16T09:56:31.852Z,9.23
2023-03-16T09:59:00.756Z,6.90
2023-03-16T10:01:57.116Z,10.70
2023-03-16T10:04:40.198Z,9.40
2023-03-16T10:07:22.230Z,8.10
2023-03-16T10:09:57.541Z,7.80
2023-03-16T10:12:31.905Z,8.47
2023-03-16T10:15:07.325Z,8.97
2023-03-16T10:17:42.234Z,9.00
2023-03-16T10:20:17.685Z,9.63
2023-03-16T10:22:47.734Z,7.67
2023-03-16T10:25:23.648Z,14.73
2023-03-16T10:27:53.054Z,12.13
2023-03-16T10:30:29.094Z,8.63
2023-03-16T10:33:03.738Z,10.13
2023-03-16T10:35:41.944Z,8.80
2023-03-16T10:38:10.542Z,8.70
2023-03-16T10:40:39.755Z,11.60
2023-03-16T10:43:09.590Z,9.10
2023-03-16T10:45:38.197Z,9.40
2023-03-16T10:48:16.146Z,9.27
2023-03-16T10:50:45.368Z,8.67
2023-03-16T10:53:21.343Z,7.83
2023-03-16T10:55:50.390Z,6.00
2023-03-16T10:58:29.608Z,10.83
2023-03-16T11:01:01.446Z,7.93
2023-03-16T11:03:42.074Z,6.20
2023-03-16T11:06:23.002Z,5.40
2023-03-16T11:08:52.922Z,5.43
2023-03-16T11:11:39.697Z,7.30
2023-03-16T11:14:15.920Z,10.43
2023-03-16T11:16:52.162Z,4.97
2023-03-16T11:19:26.216Z,4.83
2023-03-16T11:22:00.330Z,9.40
2023-03-16T11:24:39.360Z,3.93
2023-03-16T11:27:20.692Z,5.17
2023-03-16T11:30:01.199Z,9.37
2023-03-16T11:32:36.917Z,4.70
2023-03-16T11:35:19.974Z,5.00
2023-03-16T11:38:17.365Z,5.40
2023-03-16T11:41:01.001Z,7.67
2023-03-16T11:43:50.895Z,6.90
2023-03-16T11:46:36.004Z,5.07
2023-03-16T11:49:32.169Z,6.93
2023-03-16T11:52:09.660Z,9.93
2023-03-16T11:54:52.205Z,6.73
2023-03-16T11:57:34.060Z,7.90
2023-03-16T12:00:14.317Z,4.23
2023-03-16T12:03:07.109Z,5.60
2023-03-16T12:05:58.698Z,4.60
2023-03-16T12:08:49.841Z,5.50
2023-03-16T12:11:25.092Z,4.13
2023-03-16T12:14:06.018Z,4.80
2023-03-16T12:16:48.664Z,4.90
2023-03-16T12:19:23.383Z,5.23
2023-03-16T12:22:02.907Z,5.17
2023-03-16T12:24:40.383Z,4.63
2023-03-16T12:27:19.543Z,6.93
2023-03-16T12:32:48.835Z,5.73
2023-03-16T12:35:31.292Z,4.63
2023-03-16T12:38:16.100Z,6.30
2023-03-16T12:40:54.866Z,7.20
2023-03-16T12:43:40.810Z,4.60
2023-03-16T12:46:16.236Z,5.70
2023-03-16T12:48:55.028Z,7.37
2023-03-16T12:51:44.085Z,6.43
2023-03-16T12:54:21.710Z,4.43
2023-03-16T12:56:54.062Z,3.70
2023-03-16T12:59:25.837Z,6.07
2023-03-16T13:02:01.150Z,6.30
2023-03-16T13:04:33.968Z,6.73
2023-03-16T13:07:07.882Z,6.50
2023-03-16T13:09:43.968Z,5.83
2023-03-16T13:12:24.928Z,6.97
2023-03-16T13:14:56.366Z,10.83
2023-03-16T13:17:33.673Z,4.10
2023-03-16T13:20:11.821Z,7.97
2023-03-16T13:22:50.394Z,4.40
2023-03-16T13:25:23.957Z,6.97
2023-03-16T13:27:58.584Z,9.13
2023-03-16T13:30:31.173Z,8.00
2023-03-16T13:33:07.703Z,9.23
2023-03-16T13:35:40.207Z,8.00
2023-03-16T13:38:15.955Z,9.27
2023-03-16T13:40:48.115Z,6.40
2023-03-16T13:43:20.821Z,7.63
2023-03-16T13:45:49.068Z,4.07
2023-03-16T13:48:19.305Z,5.87
2023-03-16T13:50:53.200Z,4.07
2023-03-16T13:53:25.119Z,6.93
2023-03-16T13:55:55.774Z,5.67
2023-03-16T13:58:33.051Z,9.97
2023-03-16T14:01:03.691Z,3.80
2023-03-16T14:03:36.093Z,3.53
2023-03-16T14:06:04.681Z,4.67
2023-03-16T14:08:33.871Z,6.97
2023-03-16T14:11:02.665Z,6.00
2023-03-16T14:13:38.400Z,4.13
2023-03-16T14:16:14.384Z,5.90
2023-03-16T14:18:44.480Z,5.20
2023-03-16T14:21:19.860Z,6.00
2023-03-16T14:23:55.630Z,4.10
2023-03-16T14:26:23.924Z,4.93
2023-03-16T14:28:58.558Z,3.23
2023-03-16T14:31:35.837Z,3.97
2023-03-16T14:34:07.696Z,5.10
2023-03-16T14:36:37.928Z,5.70
2023-03-16T14:39:14.198Z,5.20
2023-03-16T14:41:42.524Z,5.27
2023-03-16T14:44:21.770Z,4.13
2023-03-16T14:46:50.685Z,7.00
2023-03-16T14:49:22.779Z,4.87
2023-03-16T14:51:53.795Z,4.53
2023-03-16T14:54:23.523Z,3.57
2023-03-16T14:56:52.692Z,3.13
2023-03-16T14:59:23.057Z,5.30
2023-03-16T15:01:52.696Z,9.17
2023-03-16T15:04:27.880Z,9.90
2023-03-16T15:06:59.023Z,6.70
2023-03-16T15:09:37.306Z,5.53
2023-03-16T15:12:06.179Z,3.63
2023-03-16T15:14:52.743Z,3.50
2023-03-16T15:17:20.579Z,6.43
2023-03-16T15:19:50.406Z,3.40
2023-03-16T15:22:24.167Z,5.33
2023-03-16T15:24:52.593Z,6.20
2023-03-16T15:27:34.001Z,4.60
2023-03-16T15:30:03.914Z,4.70
2023-03-16T15:32:35.258Z,3.00
2023-03-16T15:35:04.281Z,8.77
2023-03-16T15:37:33.116Z,4.57
2023-03-16T15:40:01.357Z,3.97
2023-03-16T15:42:29.351Z,5.63
2023-03-16T15:44:57.233Z,4.10
2023-03-16T15:47:26.721Z,4.10
2023-03-16T15:49:54.459Z,3.20
2023-03-16T15:52:31.722Z,5.30
2023-03-16T15:55:04.442Z,4.50
2023-03-16T15:57:32.442Z,3.67
2023-03-16T16:00:01.576Z,3.60
2023-03-16T16:02:32.607Z,3.80
2023-03-16T16:05:01.106Z,3.17
2023-03-16T16:07:28.924Z,3.83
2023-03-16T16:09:56.870Z,5.50
2023-03-16T16:12:44.237Z,3.70
2023-03-16T16:15:21.725Z,4.17
2023-03-16T16:18:18.615Z,5.23
2023-03-16T16:20:41.331Z,4.97
2023-03-16T16:23:11.189Z,3.57
2023-03-16T16:25:42.283Z,5.33
2023-03-16T16:28:19.671Z,3.90
2023-03-16T16:30:48.178Z,3.10
2023-03-16T16:33:26.255Z,4.40
2023-03-16T16:35:54.327Z,4.00
2023-03-16T16:38:23.343Z,5.27
2023-03-16T16:40:59.206Z,4.57
2023-03-16T16:43:37.254Z,4.70
2023-03-16T16:46:12.833Z,3.27
2023-03-16T16:48:45.747Z,3.40
2023-03-16T16:51:18.562Z,5.00
2023-03-16T16:53:47.866Z,7.23
2023-03-16T16:56:18.940Z,3.50
2023-03-16T16:58:47.177Z,5.43
2023-03-16T17:01:24.176Z,3.73
2023-03-16T17:03:55.945Z,6.83
2023-03-16T17:06:38.383Z,5.00
2023-03-16T17:11:59.666Z,7.80
2023-03-16T17:14:31.624Z,11.70
2023-03-16T17:17:01.712Z,5.07
2023-03-16T17:19:40.480Z,7.63
2023-03-16T17:22:28.375Z,9.27
2023-03-16T17:25:00.613Z,6.50
2023-03-16T17:27:33.486Z,7.77
2023-03-16T17:30:01.929Z,6.23
2023-03-16T17:32:31.260Z,6.97
2023-03-16T17:35:01.023Z,9.47
2023-03-16T17:37:29.150Z,10.10
2023-03-16T17:39:58.167Z,8.30
2023-03-16T17:42:26.706Z,8.83
2023-03-16T17:44:54.587Z,6.03
2023-03-16T17:47:24.832Z,7.93
2023-03-16T17:49:53.619Z,13.73
2023-03-16T17:52:26.017Z,10.50
2023-03-16T17:54:55.505Z,13.73
2023-03-16T17:57:29.611Z,10.57
2023-03-16T17:59:57.830Z,9.27
2023-03-16T18:02:40.049Z,11.82
2023-03-16T18:05:17.549Z,5.82
2023-03-16T18:07:47.112Z,7.68
2023-03-16T18:10:16.844Z,10.32
2023-03-16T18:12:46.428Z,7.23
2023-03-16T18:15:19.684Z,7.80
2023-03-16T18:17:48.420Z,9.60
2023-03-16T18:20:33.688Z,9.02
2023-03-16T18:23:11.985Z,7.63
2023-03-16T18:25:40.427Z,7.95
2023-03-16T18:28:10.391Z,8.30
2023-03-16T18:30:40.177Z,6.55
2023-03-16T18:33:14.373Z,7.95
2023-03-16T18:35:43.856Z,8.63
2023-03-16T18:38:20.473Z,10.50
2023-03-16T18:40:48.512Z,6.97
2023-03-16T18:43:18.284Z,8.48
2023-03-16T18:45:47.077Z,9.82
2023-03-16T18:48:23.419Z,9.32
2023-03-16T18:50:51.512Z,8.88
2023-03-16T18:53:22.494Z,8.02
2023-03-16T18:55:51.199Z,8.95
2023-03-16T18:58:22.370Z,7.93
2023-03-16T19:00:55.321Z,15.93
2023-03-16T19:03:26.613Z,6.25
2023-03-16T19:05:59.933Z,11.85
2023-03-16T19:08:30.263Z,10.00
2023-03-16T19:11:04.665Z,9.63
2023-03-16T19:13:33.450Z,9.00
2023-03-16T19:16:03.380Z,11.60
2023-03-16T19:18:32.911Z,7.70
2023-03-16T19:21:01.429Z,9.48
2023-03-16T19:23:34.772Z,8.63
2023-03-16T19:26:04.927Z,8.18
2023-03-16T19:28:37.262Z,10.73
2023-03-16T19:34:26.416Z,11.32
2023-03-16T19:36:54.548Z,7.28
2023-03-16T19:39:23.926Z,12.00
2023-03-16T19:41:58.259Z,10.65
2023-03-16T19:44:29.095Z,10.88
2023-03-16T19:46:59.842Z,9.88
2023-03-16T19:49:29.358Z,12.75
2023-03-16T19:52:02.791Z,8.90
2023-03-16T19:54:34.080Z,11.10
2023-03-16T19:57:12.446Z,9.95
2023-03-16T19:59:42.363Z,9.38
2023-03-16T20:02:26.612Z,8.10
2023-03-16T20:04:54.763Z,11.18
2023-03-16T20:07:23.036Z,9.32
2023-03-16T20:09:52.401Z,8.15
2023-03-16T20:12:23.546Z,12.68
2023-03-16T20:14:52.488Z,11.65
2023-03-16T20:17:33.030Z,9.95
2023-03-16T20:20:02.195Z,13.98
2023-03-16T20:22:30.430Z,13.38
2023-03-16T20:25:02.245Z,10.20
2023-03-16T20:27:31.616Z,14.35
2023-03-16T20:29:59.783Z,11.55
2023-03-16T20:32:35.660Z,9.73
2023-03-16T20:35:12.885Z,11.85
2023-03-16T20:37:40.649Z,8.73
2023-03-16T20:40:11.177Z,14.77
2023-03-16T20:42:41.312Z,10.20
2023-03-16T20:45:17.596Z,11.02
2023-03-16T20:47:46.892Z,12.02
2023-03-16T20:50:35.874Z,16.48
2023-03-16T20:56:05.630Z,12.85
2023-03-16T20:58:38.145Z,11.57
2023-03-16T21:01:07.009Z,11.45
2023-03-16T21:03:34.910Z,11.20
2023-03-16T21:06:03.162Z,11.10
2023-03-16T21:08:31.787Z,13.77
2023-03-16T21:11:00.579Z,8.07
2023-03-16T21:13:32.919Z,7.75
2023-03-16T21:16:04.217Z,10.65
2023-03-16T21:18:33.191Z,9.18
2023-03-16T21:21:02.094Z,10.75
2023-03-16T21:23:41.163Z,8.88
2023-03-16T21:26:20.823Z,7.75
2023-03-16T21:28:56.864Z,8.85
2023-03-16T21:31:25.932Z,9.20
2023-03-16T21:33:57.010Z,12.40
2023-03-16T21:36:28.805Z,9.13
2023-03-16T21:38:57.456Z,11.45
2023-03-16T21:41:25.733Z,11.98
2023-03-16T21:43:55.982Z,11.18
2023-03-16T21:46:26.050Z,8.40
2023-03-16T21:48:56.087Z,14.10
2023-03-16T21:51:28.872Z,11.45
2023-03-16T21:53:56.880Z,9.10
2023-03-16T21:56:26.560Z,11.55
2023-03-16T21:58:55.906Z,13.43
2023-03-16T22:01:26.164Z,8.50
2023-03-16T22:03:57.474Z,11.73
2023-03-16T22:06:28.104Z,14.75
2023-03-16T22:08:56.947Z,10.43
2023-03-16T22:11:28.893Z,12.05
2023-03-16T22:14:00.836Z,8.82
2023-03-16T22:16:35.627Z,14.52
2023-03-16T22:19:04.516Z,10.18
2023-03-16T22:21:35.707Z,11.75
2023-03-16T22:24:05.921Z,14.20
2023-03-16T22:26:34.211Z,9.80
2023-03-16T22:29:07.718Z,9.95
2023-03-16T22:31:39.781Z,14.43
2023-03-16T22:34:08.537Z,9.68
2023-03-16T22:36:38.426Z,10.18
2023-03-16T22:39:12.291Z,15.13
2023-03-16T22:41:40.387Z,11.18
2023-03-16T22:44:20.716Z,11.48
2023-03-16T22:46:52.219Z,9.00
2023-03-16T22:49:25.179Z,9.77
2023-03-16T22:51:55.634Z,11.15
2023-03-16T22:54:30.619Z,10.07
2023-03-16T22:56:59.173Z,11.07
2023-03-16T22:59:28.810Z,9.68
2023-03-16T23:01:59.566Z,10.80
2023-03-16T23:04:32.737Z,8.30
2023-03-16T23:07:02.197Z,11.18
2023-03-16T23:09:30.157Z,10.25
2023-03-16T23:11:59.422Z,7.95
2023-03-16T23:14:32.346Z,10.30
2023-03-16T23:17:00.447Z,11.55
2023-03-16T23:19:32.993Z,18.30
2023-03-16T23:22:04.568Z,10.77
2023-03-16T23:24:34.230Z,8.88
2023-03-16T23:27:03.100Z,10.63
2023-03-16T23:29:33.843Z,9.88
2023-03-16T23:32:01.870Z,7.75
2023-03-16T23:34:30.043Z,9.77
2023-03-16T23:36:57.842Z,8.90
2023-03-16T23:39:26.155Z,8.13
2023-03-16T23:41:53.962Z,8.88
2023-03-16T23:44:24.718Z,7.68
2023-03-16T23:46:54.351Z,10.25
2023-03-16T23:49:25.481Z,10.05
2023-03-16T23:51:54.332Z,7.60
2023-03-16T23:54:24.473Z,8.63
2023-03-16T23:56:52.755Z,10.15
2023-03-16T23:59:21.394Z,10.10
